sensor_id;sensor_type;location;lat;lon;timestamp;temperature;humidity
41481;DHT22;27217;51.220;5.308;2023-08-21T00:00:02;21.90;99.90
41481;DHT22;27217;51.220;5.308;2023-08-21T00:02:49;21.70;99.90
41481;DHT22;27217;51.220;5.308;2023-08-21T00:05:15;21.60;99.90
41481;DHT22;27217;51.220;5.308;2023-08-21T00:07:42;21.60;99.90
41481;DHT22;27217;51.220;5.308;2023-08-21T00:10:09;21.70;99.90
41481;DHT22;27217;51.220;5.308;2023-08-21T00:12:35;21.80;99.90
41481;DHT22;27217;51.220;5.308;2023-08-21T00:15:01;21.80;99.90
41481;DHT22;27217;51.220;5.308;2023-08-21T00:17:27;21.70;99.90
41481;DHT22;27217;51.220;5.308;2023-08-21T00:19:53;21.60;99.90
41481;DHT22;27217;51.220;5.308;2023-08-21T00:22:19;21.50;99.90
41481;DHT22;27217;51.220;5.308;2023-08-21T00:24:44;21.50;99.90
41481;DHT22;27217;51.220;5.308;2023-08-21T00:27:10;21.30;99.90
41481;DHT22;27217;51.220;5.308;2023-08-21T00:29:36;21.20;99.90
41481;DHT22;27217;51.220;5.308;2023-08-21T00:32:02;21.10;99.90
41481;DHT22;27217;51.220;5.308;2023-08-21T00:34:28;21.10;99.90
41481;DHT22;27217;51.220;5.308;2023-08-21T00:36:54;21.10;99.90
41481;DHT22;27217;51.220;5.308;2023-08-21T00:39:19;21.20;99.90
41481;DHT22;27217;51.220;5.308;2023-08-21T00:41:45;21.10;99.90
41481;DHT22;27217;51.220;5.308;2023-08-21T00:44:12;21.30;99.90
41481;DHT22;27217;51.220;5.308;2023-08-21T00:46:37;21.20;99.90
41481;DHT22;27217;51.220;5.308;2023-08-21T00:49:03;21.20;99.90
41481;DHT22;27217;51.220;5.308;2023-08-21T00:51:29;21.20;99.90
41481;DHT22;27217;51.220;5.308;2023-08-21T00:53:55;21.20;99.90
41481;DHT22;27217;51.220;5.308;2023-08-21T00:56:21;21.20;99.90
41481;DHT22;27217;51.220;5.308;2023-08-21T00:58:48;21.10;99.90
41481;DHT22;27217;51.220;5.308;2023-08-21T01:01:16;21.10;99.90
41481;DHT22;27217;51.220;5.308;2023-08-21T01:03:43;21.10;99.90
41481;DHT22;27217;51.220;5.308;2023-08-21T01:06:09;21.10;99.90
41481;DHT22;27217;51.220;5.308;2023-08-21T01:08:57;21.10;99.90
41481;DHT22;27217;51.220;5.308;2023-08-21T01:11:44;21.10;99.90
41481;DHT22;27217;51.220;5.308;2023-08-21T01:14:33;21.10;99.90
41481;DHT22;27217;51.220;5.308;2023-08-21T01:17:03;21.00;99.90
41481;DHT22;27217;51.220;5.308;2023-08-21T01:19:37;21.00;99.90
41481;DHT22;27217;51.220;5.308;2023-08-21T01:22:06;21.10;99.90
41481;DHT22;27217;51.220;5.308;2023-08-21T01:24:31;21.10;99.90
41481;DHT22;27217;51.220;5.308;2023-08-21T01:26:57;21.00;99.90
41481;DHT22;27217;51.220;5.308;2023-08-21T01:29:23;21.00;99.90
41481;DHT22;27217;51.220;5.308;2023-08-21T01:32:58;21.00;99.90
41481;DHT22;27217;51.220;5.308;2023-08-21T01:34:50;20.90;99.90
41481;DHT22;27217;51.220;5.308;2023-08-21T01:37:17;21.10;99.90
41481;DHT22;27217;51.220;5.308;2023-08-21T01:39:43;20.80;99.90
41481;DHT22;27217;51.220;5.308;2023-08-21T01:42:09;20.80;99.90
41481;DHT22;27217;51.220;5.308;2023-08-21T01:44:35;20.90;99.90
41481;DHT22;27217;51.220;5.308;2023-08-21T01:47:01;20.80;99.90
41481;DHT22;27217;51.220;5.308;2023-08-21T01:49:26;20.70;99.90
41481;DHT22;27217;51.220;5.308;2023-08-21T01:51:52;20.80;99.90
41481;DHT22;27217;51.220;5.308;2023-08-21T01:54:18;20.70;99.90
41481;DHT22;27217;51.220;5.308;2023-08-21T01:56:43;20.70;99.90
41481;DHT22;27217;51.220;5.308;2023-08-21T01:59:09;20.70;99.90
41481;DHT22;27217;51.220;5.308;2023-08-21T02:01:35;20.60;99.90
41481;DHT22;27217;51.220;5.308;2023-08-21T02:04:00;20.70;99.90
41481;DHT22;27217;51.220;5.308;2023-08-21T02:06:26;20.70;99.90
41481;DHT22;27217;51.220;5.308;2023-08-21T02:08:52;20.80;99.90
41481;DHT22;27217;51.220;5.308;2023-08-21T02:11:18;20.90;99.90
41481;DHT22;27217;51.220;5.308;2023-08-21T02:13:43;21.10;99.90
41481;DHT22;27217;51.220;5.308;2023-08-21T02:16:12;21.00;99.90
41481;DHT22;27217;51.220;5.308;2023-08-21T02:18:38;21.00;99.90
41481;DHT22;27217;51.220;5.308;2023-08-21T02:21:04;20.90;99.90
41481;DHT22;27217;51.220;5.308;2023-08-21T02:23:29;20.90;99.90
41481;DHT22;27217;51.220;5.308;2023-08-21T02:25:56;20.70;99.90
41481;DHT22;27217;51.220;5.308;2023-08-21T02:28:22;20.50;99.90
41481;DHT22;27217;51.220;5.308;2023-08-21T02:30:47;20.40;99.90
41481;DHT22;27217;51.220;5.308;2023-08-21T02:33:13;20.50;99.90
41481;DHT22;27217;51.220;5.308;2023-08-21T02:35:39;20.30;99.90
41481;DHT22;27217;51.220;5.308;2023-08-21T02:38:05;20.20;99.90
41481;DHT22;27217;51.220;5.308;2023-08-21T02:40:31;20.30;99.90
41481;DHT22;27217;51.220;5.308;2023-08-21T02:42:57;20.30;99.90
41481;DHT22;27217;51.220;5.308;2023-08-21T02:45:23;20.30;99.90
41481;DHT22;27217;51.220;5.308;2023-08-21T02:47:49;20.40;99.90
41481;DHT22;27217;51.220;5.308;2023-08-21T02:50:15;20.60;99.90
41481;DHT22;27217;51.220;5.308;2023-08-21T02:52:40;20.70;99.90
41481;DHT22;27217;51.220;5.308;2023-08-21T02:55:06;20.80;99.90
41481;DHT22;27217;51.220;5.308;2023-08-21T02:57:32;20.80;99.90
41481;DHT22;27217;51.220;5.308;2023-08-21T02:59:58;20.60;99.90
41481;DHT22;27217;51.220;5.308;2023-08-21T03:02:24;20.80;99.90
41481;DHT22;27217;51.220;5.308;2023-08-21T03:04:50;20.70;99.90
41481;DHT22;27217;51.220;5.308;2023-08-21T03:07:16;20.90;99.90
41481;DHT22;27217;51.220;5.308;2023-08-21T03:09:45;20.80;99.90
41481;DHT22;27217;51.220;5.308;2023-08-21T03:12:11;20.70;99.90
41481;DHT22;27217;51.220;5.308;2023-08-21T03:14:36;20.70;99.90
41481;DHT22;27217;51.220;5.308;2023-08-21T03:17:02;20.60;99.90
41481;DHT22;27217;51.220;5.308;2023-08-21T03:19:28;20.50;99.90
41481;DHT22;27217;51.220;5.308;2023-08-21T03:21:53;20.40;99.90
41481;DHT22;27217;51.220;5.308;2023-08-21T03:24:20;20.20;99.90
41481;DHT22;27217;51.220;5.308;2023-08-21T03:26:46;20.20;99.90
41481;DHT22;27217;51.220;5.308;2023-08-21T03:29:11;20.30;99.90
41481;DHT22;27217;51.220;5.308;2023-08-21T03:31:37;20.30;99.90
41481;DHT22;27217;51.220;5.308;2023-08-21T03:34:03;20.50;99.90
41481;DHT22;27217;51.220;5.308;2023-08-21T03:36:29;20.30;99.90
41481;DHT22;27217;51.220;5.308;2023-08-21T03:38:58;20.20;99.90
41481;DHT22;27217;51.220;5.308;2023-08-21T03:41:24;20.00;99.90
41481;DHT22;27217;51.220;5.308;2023-08-21T03:43:49;19.80;99.90
41481;DHT22;27217;51.220;5.308;2023-08-21T03:46:15;19.80;99.90
41481;DHT22;27217;51.220;5.308;2023-08-21T03:48:41;19.90;99.90
41481;DHT22;27217;51.220;5.308;2023-08-21T03:51:07;19.60;99.90
41481;DHT22;27217;51.220;5.308;2023-08-21T03:53:33;19.60;99.90
41481;DHT22;27217;51.220;5.308;2023-08-21T03:55:58;19.50;99.90
41481;DHT22;27217;51.220;5.308;2023-08-21T03:58:24;19.30;99.90
41481;DHT22;27217;51.220;5.308;2023-08-21T04:00:52;19.30;99.90
41481;DHT22;27217;51.220;5.308;2023-08-21T04:03:18;19.60;99.90
41481;DHT22;27217;51.220;5.308;2023-08-21T04:05:44;19.90;99.90
41481;DHT22;27217;51.220;5.308;2023-08-21T04:08:10;19.80;99.90
41481;DHT22;27217;51.220;5.308;2023-08-21T04:10:36;19.70;99.90
41481;DHT22;27217;51.220;5.308;2023-08-21T04:13:02;19.80;99.90
41481;DHT22;27217;51.220;5.308;2023-08-21T04:15:28;19.70;99.90
41481;DHT22;27217;51.220;5.308;2023-08-21T04:17:57;19.90;99.90
41481;DHT22;27217;51.220;5.308;2023-08-21T04:20:23;19.80;99.90
41481;DHT22;27217;51.220;5.308;2023-08-21T04:22:49;19.10;99.90
41481;DHT22;27217;51.220;5.308;2023-08-21T04:25:15;19.10;99.90
41481;DHT22;27217;51.220;5.308;2023-08-21T04:27:42;19.60;99.90
41481;DHT22;27217;51.220;5.308;2023-08-21T04:30:08;19.60;99.90
41481;DHT22;27217;51.220;5.308;2023-08-21T04:32:34;19.80;99.90
41481;DHT22;27217;51.220;5.308;2023-08-21T04:35:00;19.40;99.90
41481;DHT22;27217;51.220;5.308;2023-08-21T04:37:26;19.40;99.90
41481;DHT22;27217;51.220;5.308;2023-08-21T04:39:52;19.50;99.90
41481;DHT22;27217;51.220;5.308;2023-08-21T04:42:18;19.50;99.90
41481;DHT22;27217;51.220;5.308;2023-08-21T04:44:44;19.50;99.90
41481;DHT22;27217;51.220;5.308;2023-08-21T04:47:39;19.50;99.90
41481;DHT22;27217;51.220;5.308;2023-08-21T04:50:05;19.60;99.90
41481;DHT22;27217;51.220;5.308;2023-08-21T04:52:31;19.60;99.90
41481;DHT22;27217;51.220;5.308;2023-08-21T04:54:56;19.60;99.90
41481;DHT22;27217;51.220;5.308;2023-08-21T04:57:22;19.50;99.90
41481;DHT22;27217;51.220;5.308;2023-08-21T04:59:48;19.40;99.90
41481;DHT22;27217;51.220;5.308;2023-08-21T05:02:14;19.40;99.90
41481;DHT22;27217;51.220;5.308;2023-08-21T05:04:40;19.40;99.90
41481;DHT22;27217;51.220;5.308;2023-08-21T05:07:05;19.30;99.90
41481;DHT22;27217;51.220;5.308;2023-08-21T05:09:34;19.20;99.90
41481;DHT22;27217;51.220;5.308;2023-08-21T05:12:00;19.20;99.90
41481;DHT22;27217;51.220;5.308;2023-08-21T05:14:25;19.30;99.90
41481;DHT22;27217;51.220;5.308;2023-08-21T05:16:52;19.40;99.90
41481;DHT22;27217;51.220;5.308;2023-08-21T05:19:17;19.40;99.90
41481;DHT22;27217;51.220;5.308;2023-08-21T05:21:43;19.40;99.90
41481;DHT22;27217;51.220;5.308;2023-08-21T05:24:10;19.40;99.90
41481;DHT22;27217;51.220;5.308;2023-08-21T05:26:36;19.40;99.90
41481;DHT22;27217;51.220;5.308;2023-08-21T05:29:02;19.30;99.90
41481;DHT22;27217;51.220;5.308;2023-08-21T05:31:28;19.50;99.90
41481;DHT22;27217;51.220;5.308;2023-08-21T05:33:54;19.40;99.90
41481;DHT22;27217;51.220;5.308;2023-08-21T05:36:19;19.80;99.90
41481;DHT22;27217;51.220;5.308;2023-08-21T05:38:45;19.70;99.90
41481;DHT22;27217;51.220;5.308;2023-08-21T05:41:13;19.50;99.90
41481;DHT22;27217;51.220;5.308;2023-08-21T05:43:39;19.50;99.90
41481;DHT22;27217;51.220;5.308;2023-08-21T05:46:07;19.50;99.90
41481;DHT22;27217;51.220;5.308;2023-08-21T05:48:33;19.50;99.90
41481;DHT22;27217;51.220;5.308;2023-08-21T05:50:59;19.60;99.90
41481;DHT22;27217;51.220;5.308;2023-08-21T05:53:25;19.40;99.90
41481;DHT22;27217;51.220;5.308;2023-08-21T05:55:52;19.40;99.90
41481;DHT22;27217;51.220;5.308;2023-08-21T05:58:17;19.40;99.90
41481;DHT22;27217;51.220;5.308;2023-08-21T06:00:46;19.60;99.90
41481;DHT22;27217;51.220;5.308;2023-08-21T06:03:12;19.80;99.90
41481;DHT22;27217;51.220;5.308;2023-08-21T06:05:38;19.70;99.90
41481;DHT22;27217;51.220;5.308;2023-08-21T06:08:04;19.70;99.90
41481;DHT22;27217;51.220;5.308;2023-08-21T06:10:31;19.90;99.90
41481;DHT22;27217;51.220;5.308;2023-08-21T06:12:57;20.10;99.90
41481;DHT22;27217;51.220;5.308;2023-08-21T06:15:22;19.80;99.90
41481;DHT22;27217;51.220;5.308;2023-08-21T06:17:48;19.70;99.90
41481;DHT22;27217;51.220;5.308;2023-08-21T06:20:14;19.90;99.90
41481;DHT22;27217;51.220;5.308;2023-08-21T06:22:44;20.20;99.90
41481;DHT22;27217;51.220;5.308;2023-08-21T06:25:09;20.40;99.90
41481;DHT22;27217;51.220;5.308;2023-08-21T06:27:35;20.20;99.90
41481;DHT22;27217;51.220;5.308;2023-08-21T06:30:01;20.20;99.90
41481;DHT22;27217;51.220;5.308;2023-08-21T06:32:27;20.10;99.90
41481;DHT22;27217;51.220;5.308;2023-08-21T06:34:52;20.00;99.90
41481;DHT22;27217;51.220;5.308;2023-08-21T06:37:18;20.10;99.90
41481;DHT22;27217;51.220;5.308;2023-08-21T06:39:44;20.10;99.90
41481;DHT22;27217;51.220;5.308;2023-08-21T06:42:09;20.10;99.90
41481;DHT22;27217;51.220;5.308;2023-08-21T06:44:35;20.50;99.90
41481;DHT22;27217;51.220;5.308;2023-08-21T06:47:01;20.80;99.90
41481;DHT22;27217;51.220;5.308;2023-08-21T06:49:26;20.90;99.90
41481;DHT22;27217;51.220;5.308;2023-08-21T06:51:52;20.90;99.90
41481;DHT22;27217;51.220;5.308;2023-08-21T06:54:18;21.10;99.90
41481;DHT22;27217;51.220;5.308;2023-08-21T06:56:44;21.00;99.90
41481;DHT22;27217;51.220;5.308;2023-08-21T06:59:10;20.90;99.90
41481;DHT22;27217;51.220;5.308;2023-08-21T07:01:37;21.10;99.90
41481;DHT22;27217;51.220;5.308;2023-08-21T07:04:02;21.10;99.90
41481;DHT22;27217;51.220;5.308;2023-08-21T07:06:30;21.20;99.90
41481;DHT22;27217;51.220;5.308;2023-08-21T07:08:55;21.20;99.90
41481;DHT22;27217;51.220;5.308;2023-08-21T07:11:21;21.40;99.90
41481;DHT22;27217;51.220;5.308;2023-08-21T07:13:47;21.40;99.90
41481;DHT22;27217;51.220;5.308;2023-08-21T07:16:12;21.70;99.90
41481;DHT22;27217;51.220;5.308;2023-08-21T07:18:38;21.60;99.90
41481;DHT22;27217;51.220;5.308;2023-08-21T07:21:04;21.50;99.90
41481;DHT22;27217;51.220;5.308;2023-08-21T07:23:31;21.60;99.90
41481;DHT22;27217;51.220;5.308;2023-08-21T07:25:58;21.60;99.90
41481;DHT22;27217;51.220;5.308;2023-08-21T07:28:23;21.60;99.90
41481;DHT22;27217;51.220;5.308;2023-08-21T07:30:58;21.60;99.90
41481;DHT22;27217;51.220;5.308;2023-08-21T07:33:24;21.50;99.90
41481;DHT22;27217;51.220;5.308;2023-08-21T07:36:02;21.60;99.90
41481;DHT22;27217;51.220;5.308;2023-08-21T07:38:28;21.90;99.90
41481;DHT22;27217;51.220;5.308;2023-08-21T07:41:04;22.00;99.90
41481;DHT22;27217;51.220;5.308;2023-08-21T07:43:31;22.20;99.90
41481;DHT22;27217;51.220;5.308;2023-08-21T07:45:56;22.20;99.90
41481;DHT22;27217;51.220;5.308;2023-08-21T07:48:22;22.40;99.90
41481;DHT22;27217;51.220;5.308;2023-08-21T07:50:52;22.60;99.90
41481;DHT22;27217;51.220;5.308;2023-08-21T07:53:18;22.70;99.90
41481;DHT22;27217;51.220;5.308;2023-08-21T07:55:44;22.70;99.90
41481;DHT22;27217;51.220;5.308;2023-08-21T07:58:11;22.80;99.90
41481;DHT22;27217;51.220;5.308;2023-08-21T08:00:37;23.00;99.90
41481;DHT22;27217;51.220;5.308;2023-08-21T08:03:04;23.00;99.90
41481;DHT22;27217;51.220;5.308;2023-08-21T08:05:31;23.10;99.90
41481;DHT22;27217;51.220;5.308;2023-08-21T08:07:57;23.30;99.90
41481;DHT22;27217;51.220;5.308;2023-08-21T08:10:23;23.50;99.90
41481;DHT22;27217;51.220;5.308;2023-08-21T08:12:49;23.60;99.90
41481;DHT22;27217;51.220;5.308;2023-08-21T08:15:15;23.40;99.90
41481;DHT22;27217;51.220;5.308;2023-08-21T08:17:40;23.60;99.90
41481;DHT22;27217;51.220;5.308;2023-08-21T08:20:06;23.50;99.90
41481;DHT22;27217;51.220;5.308;2023-08-21T08:22:32;23.30;99.90
41481;DHT22;27217;51.220;5.308;2023-08-21T08:24:58;23.40;99.90
41481;DHT22;27217;51.220;5.308;2023-08-21T08:27:27;23.70;99.90
41481;DHT22;27217;51.220;5.308;2023-08-21T08:29:52;23.70;99.90
41481;DHT22;27217;51.220;5.308;2023-08-21T08:32:18;24.00;99.90
41481;DHT22;27217;51.220;5.308;2023-08-21T08:34:44;24.00;99.90
41481;DHT22;27217;51.220;5.308;2023-08-21T08:37:12;24.00;99.90
41481;DHT22;27217;51.220;5.308;2023-08-21T08:39:37;24.00;99.90
41481;DHT22;27217;51.220;5.308;2023-08-21T08:42:05;24.10;99.90
41481;DHT22;27217;51.220;5.308;2023-08-21T08:44:34;24.20;99.90
41481;DHT22;27217;51.220;5.308;2023-08-21T08:47:01;24.40;99.90
41481;DHT22;27217;51.220;5.308;2023-08-21T08:49:27;24.50;99.90
41481;DHT22;27217;51.220;5.308;2023-08-21T08:51:54;24.60;99.90
41481;DHT22;27217;51.220;5.308;2023-08-21T08:54:21;24.70;99.60
41481;DHT22;27217;51.220;5.308;2023-08-21T08:56:47;24.60;99.50
41481;DHT22;27217;51.220;5.308;2023-08-21T08:59:13;24.50;99.70
41481;DHT22;27217;51.220;5.308;2023-08-21T09:01:41;24.50;99.90
41481;DHT22;27217;51.220;5.308;2023-08-21T09:04:07;24.60;99.80
41481;DHT22;27217;51.220;5.308;2023-08-21T09:06:33;25.00;98.90
41481;DHT22;27217;51.220;5.308;2023-08-21T09:08:59;24.60;98.80
41481;DHT22;27217;51.220;5.308;2023-08-21T09:11:27;24.60;99.10
41481;DHT22;27217;51.220;5.308;2023-08-21T09:13:54;25.00;99.10
41481;DHT22;27217;51.220;5.308;2023-08-21T09:16:21;25.60;98.10
41481;DHT22;27217;51.220;5.308;2023-08-21T09:18:52;25.60;97.60
41481;DHT22;27217;51.220;5.308;2023-08-21T09:21:18;25.90;96.60
41481;DHT22;27217;51.220;5.308;2023-08-21T09:23:45;25.70;96.30
41481;DHT22;27217;51.220;5.308;2023-08-21T09:26:21;25.50;96.70
41481;DHT22;27217;51.220;5.308;2023-08-21T09:28:48;25.50;96.70
41481;DHT22;27217;51.220;5.308;2023-08-21T09:31:14;25.50;96.70
41481;DHT22;27217;51.220;5.308;2023-08-21T09:33:40;25.40;96.80
41481;DHT22;27217;51.220;5.308;2023-08-21T09:36:06;25.50;97.20
41481;DHT22;27217;51.220;5.308;2023-08-21T09:38:34;25.60;97.10
41481;DHT22;27217;51.220;5.308;2023-08-21T09:41:03;25.90;97.00
41481;DHT22;27217;51.220;5.308;2023-08-21T09:43:29;26.20;96.90
41481;DHT22;27217;51.220;5.308;2023-08-21T09:45:55;26.50;96.40
41481;DHT22;27217;51.220;5.308;2023-08-21T09:48:25;26.80;94.90
41481;DHT22;27217;51.220;5.308;2023-08-21T09:50:55;26.90;93.90
41481;DHT22;27217;51.220;5.308;2023-08-21T09:53:22;26.40;94.40
41481;DHT22;27217;51.220;5.308;2023-08-21T09:55:53;26.20;94.30
41481;DHT22;27217;51.220;5.308;2023-08-21T09:58:20;26.40;93.80
41481;DHT22;27217;51.220;5.308;2023-08-21T10:00:49;26.60;93.80
41481;DHT22;27217;51.220;5.308;2023-08-21T10:03:18;26.30;93.30
41481;DHT22;27217;51.220;5.308;2023-08-21T10:05:49;26.10;94.00
41481;DHT22;27217;51.220;5.308;2023-08-21T10:08:17;26.40;94.10
41481;DHT22;27217;51.220;5.308;2023-08-21T10:10:44;26.20;94.50
41481;DHT22;27217;51.220;5.308;2023-08-21T10:13:10;26.30;94.50
41481;DHT22;27217;51.220;5.308;2023-08-21T10:15:37;26.80;93.20
41481;DHT22;27217;51.220;5.308;2023-08-21T10:18:29;27.40;91.90
41481;DHT22;27217;51.220;5.308;2023-08-21T10:20:55;26.90;91.10
41481;DHT22;27217;51.220;5.308;2023-08-21T10:23:29;26.60;92.00
41481;DHT22;27217;51.220;5.308;2023-08-21T10:26:00;26.40;91.90
41481;DHT22;27217;51.220;5.308;2023-08-21T10:28:50;26.40;92.00
41481;DHT22;27217;51.220;5.308;2023-08-21T10:31:26;26.50;92.00
41481;DHT22;27217;51.220;5.308;2023-08-21T10:33:53;26.60;92.70
41481;DHT22;27217;51.220;5.308;2023-08-21T10:39:16;26.90;92.50
41481;DHT22;27217;51.220;5.308;2023-08-21T10:42:08;27.30;91.70
41481;DHT22;27217;51.220;5.308;2023-08-21T10:47:31;26.60;91.70
41481;DHT22;27217;51.220;5.308;2023-08-21T10:50:05;26.20;92.10
41481;DHT22;27217;51.220;5.308;2023-08-21T10:52:39;26.60;92.20
41481;DHT22;27217;51.220;5.308;2023-08-21T10:55:13;26.80;91.60
41481;DHT22;27217;51.220;5.308;2023-08-21T10:57:39;27.10;91.00
41481;DHT22;27217;51.220;5.308;2023-08-21T11:00:09;27.30;90.20
41481;DHT22;27217;51.220;5.308;2023-08-21T11:02:38;27.10;90.30
41481;DHT22;27217;51.220;5.308;2023-08-21T11:05:04;27.00;90.10
41481;DHT22;27217;51.220;5.308;2023-08-21T11:07:37;27.30;89.10
41481;DHT22;27217;51.220;5.308;2023-08-21T11:10:03;28.70;83.40
41481;DHT22;27217;51.220;5.308;2023-08-21T11:12:29;30.50;75.80
41481;DHT22;27217;51.220;5.308;2023-08-21T11:14:55;31.30;70.00
41481;DHT22;27217;51.220;5.308;2023-08-21T11:17:20;32.10;68.10
41481;DHT22;27217;51.220;5.308;2023-08-21T11:19:48;33.40;62.80
41481;DHT22;27217;51.220;5.308;2023-08-21T11:22:16;33.70;59.70
41481;DHT22;27217;51.220;5.308;2023-08-21T11:24:48;32.20;60.90
41481;DHT22;27217;51.220;5.308;2023-08-21T11:27:17;31.60;62.70
41481;DHT22;27217;51.220;5.308;2023-08-21T11:29:45;33.20;59.70
41481;DHT22;27217;51.220;5.308;2023-08-21T11:32:23;34.20;57.00
41481;DHT22;27217;51.220;5.308;2023-08-21T11:34:54;35.20;55.60
41481;DHT22;27217;51.220;5.308;2023-08-21T11:37:25;36.10;53.20
41481;DHT22;27217;51.220;5.308;2023-08-21T11:39:56;34.70;53.80
41481;DHT22;27217;51.220;5.308;2023-08-21T11:42:34;36.50;51.50
41481;DHT22;27217;51.220;5.308;2023-08-21T11:45:01;36.70;49.30
41481;DHT22;27217;51.220;5.308;2023-08-21T11:47:34;36.90;49.80
41481;DHT22;27217;51.220;5.308;2023-08-21T11:50:05;34.50;52.10
41481;DHT22;27217;51.220;5.308;2023-08-21T11:52:31;34.10;53.60
41481;DHT22;27217;51.220;5.308;2023-08-21T11:54:58;36.00;51.30
41481;DHT22;27217;51.220;5.308;2023-08-21T11:57:24;36.90;49.60
41481;DHT22;27217;51.220;5.308;2023-08-21T11:59:54;35.50;49.60
41481;DHT22;27217;51.220;5.308;2023-08-21T12:02:27;34.70;52.90
41481;DHT22;27217;51.220;5.308;2023-08-21T12:05:01;36.50;51.50
41481;DHT22;27217;51.220;5.308;2023-08-21T12:07:28;37.40;49.70
41481;DHT22;27217;51.220;5.308;2023-08-21T12:09:54;37.50;49.00
41481;DHT22;27217;51.220;5.308;2023-08-21T12:12:20;37.10;49.30
41481;DHT22;27217;51.220;5.308;2023-08-21T12:14:46;36.30;50.40
41481;DHT22;27217;51.220;5.308;2023-08-21T12:17:12;35.80;51.20
41481;DHT22;27217;51.220;5.308;2023-08-21T12:19:38;34.60;52.80
41481;DHT22;27217;51.220;5.308;2023-08-21T12:22:04;34.90;52.40
41481;DHT22;27217;51.220;5.308;2023-08-21T12:24:30;34.80;52.00
41481;DHT22;27217;51.220;5.308;2023-08-21T12:26:56;34.00;53.20
41481;DHT22;27217;51.220;5.308;2023-08-21T12:29:22;34.30;54.50
41481;DHT22;27217;51.220;5.308;2023-08-21T12:31:48;36.00;50.90
41481;DHT22;27217;51.220;5.308;2023-08-21T12:34:13;36.10;49.30
41481;DHT22;27217;51.220;5.308;2023-08-21T12:36:39;36.10;49.30
41481;DHT22;27217;51.220;5.308;2023-08-21T12:39:06;36.50;48.60
41481;DHT22;27217;51.220;5.308;2023-08-21T12:41:32;37.20;47.00
41481;DHT22;27217;51.220;5.308;2023-08-21T12:44:01;37.00;47.10
41481;DHT22;27217;51.220;5.308;2023-08-21T12:46:34;35.40;49.20
41481;DHT22;27217;51.220;5.308;2023-08-21T12:49:00;34.20;50.30
41481;DHT22;27217;51.220;5.308;2023-08-21T12:51:27;34.90;48.80
41481;DHT22;27217;51.220;5.308;2023-08-21T12:53:53;36.20;47.40
41481;DHT22;27217;51.220;5.308;2023-08-21T12:56:19;36.30;46.80
41481;DHT22;27217;51.220;5.308;2023-08-21T12:58:46;36.00;47.90
41481;DHT22;27217;51.220;5.308;2023-08-21T13:01:12;35.80;48.20
41481;DHT22;27217;51.220;5.308;2023-08-21T13:03:38;37.00;47.80
41481;DHT22;27217;51.220;5.308;2023-08-21T13:06:04;35.90;46.80
41481;DHT22;27217;51.220;5.308;2023-08-21T13:08:30;35.80;48.00
41481;DHT22;27217;51.220;5.308;2023-08-21T13:10:55;36.00;47.40
41481;DHT22;27217;51.220;5.308;2023-08-21T13:13:21;38.00;45.70
41481;DHT22;27217;51.220;5.308;2023-08-21T13:15:47;39.20;45.20
41481;DHT22;27217;51.220;5.308;2023-08-21T13:18:13;39.80;44.10
41481;DHT22;27217;51.220;5.308;2023-08-21T13:20:43;37.50;46.00
41481;DHT22;27217;51.220;5.308;2023-08-21T13:23:09;37.70;45.30
41481;DHT22;27217;51.220;5.308;2023-08-21T13:25:35;38.40;45.40
41481;DHT22;27217;51.220;5.308;2023-08-21T13:28:01;38.50;45.30
41481;DHT22;27217;51.220;5.308;2023-08-21T13:30:29;36.60;45.80
41481;DHT22;27217;51.220;5.308;2023-08-21T13:32:56;34.10;50.10
41481;DHT22;27217;51.220;5.308;2023-08-21T13:35:22;33.60;51.20
41481;DHT22;27217;51.220;5.308;2023-08-21T13:37:48;33.70;51.00
41481;DHT22;27217;51.220;5.308;2023-08-21T13:40:15;35.40;49.10
41481;DHT22;27217;51.220;5.308;2023-08-21T13:42:43;36.70;47.00
41481;DHT22;27217;51.220;5.308;2023-08-21T13:45:12;36.00;47.50
41481;DHT22;27217;51.220;5.308;2023-08-21T13:47:39;37.70;45.50
41481;DHT22;27217;51.220;5.308;2023-08-21T13:50:07;38.80;44.30
41481;DHT22;27217;51.220;5.308;2023-08-21T13:52:33;40.20;42.80
41481;DHT22;27217;51.220;5.308;2023-08-21T13:55:00;41.70;41.20
41481;DHT22;27217;51.220;5.308;2023-08-21T13:57:26;39.70;41.90
41481;DHT22;27217;51.220;5.308;2023-08-21T13:59:52;37.80;44.50
41481;DHT22;27217;51.220;5.308;2023-08-21T14:02:20;36.40;45.00
41481;DHT22;27217;51.220;5.308;2023-08-21T14:04:48;37.50;45.00
41481;DHT22;27217;51.220;5.308;2023-08-21T14:07:14;37.80;44.30
41481;DHT22;27217;51.220;5.308;2023-08-21T14:09:39;38.20;43.80
41481;DHT22;27217;51.220;5.308;2023-08-21T14:12:05;38.50;43.60
41481;DHT22;27217;51.220;5.308;2023-08-21T14:14:33;39.50;42.80
41481;DHT22;27217;51.220;5.308;2023-08-21T14:16:59;40.40;41.00
41481;DHT22;27217;51.220;5.308;2023-08-21T14:19:24;40.40;41.00
41481;DHT22;27217;51.220;5.308;2023-08-21T14:21:50;40.10;41.00
41481;DHT22;27217;51.220;5.308;2023-08-21T14:24:16;41.20;40.00
41481;DHT22;27217;51.220;5.308;2023-08-21T14:26:42;40.90;40.10
41481;DHT22;27217;51.220;5.308;2023-08-21T14:29:11;38.80;41.70
41481;DHT22;27217;51.220;5.308;2023-08-21T14:31:37;37.20;43.50
41481;DHT22;27217;51.220;5.308;2023-08-21T14:34:03;35.30;46.50
41481;DHT22;27217;51.220;5.308;2023-08-21T14:36:28;36.30;45.70
41481;DHT22;27217;51.220;5.308;2023-08-21T14:38:54;37.60;43.20
41481;DHT22;27217;51.220;5.308;2023-08-21T14:41:20;39.10;42.80
41481;DHT22;27217;51.220;5.308;2023-08-21T14:43:45;38.90;42.30
41481;DHT22;27217;51.220;5.308;2023-08-21T14:46:11;37.30;43.90
41481;DHT22;27217;51.220;5.308;2023-08-21T14:48:37;37.10;44.20
41481;DHT22;27217;51.220;5.308;2023-08-21T14:51:04;37.10;43.70
41481;DHT22;27217;51.220;5.308;2023-08-21T14:53:30;36.80;44.30
41481;DHT22;27217;51.220;5.308;2023-08-21T14:55:56;36.70;44.20
41481;DHT22;27217;51.220;5.308;2023-08-21T14:58:23;37.80;43.50
41481;DHT22;27217;51.220;5.308;2023-08-21T15:00:49;39.00;42.00
41481;DHT22;27217;51.220;5.308;2023-08-21T15:03:15;38.30;42.40
41481;DHT22;27217;51.220;5.308;2023-08-21T15:05:43;40.10;41.60
41481;DHT22;27217;51.220;5.308;2023-08-21T15:08:10;40.60;40.20
41481;DHT22;27217;51.220;5.308;2023-08-21T15:10:35;40.20;40.60
41481;DHT22;27217;51.220;5.308;2023-08-21T15:13:01;40.80;40.20
41481;DHT22;27217;51.220;5.308;2023-08-21T15:15:27;41.00;40.60
41481;DHT22;27217;51.220;5.308;2023-08-21T15:17:53;40.00;41.10
41481;DHT22;27217;51.220;5.308;2023-08-21T15:20:21;39.50;41.40
41481;DHT22;27217;51.220;5.308;2023-08-21T15:22:47;39.40;42.00
41481;DHT22;27217;51.220;5.308;2023-08-21T15:25:15;39.80;41.20
41481;DHT22;27217;51.220;5.308;2023-08-21T15:27:41;37.30;43.80
41481;DHT22;27217;51.220;5.308;2023-08-21T15:30:07;38.30;42.50
41481;DHT22;27217;51.220;5.308;2023-08-21T15:32:33;39.70;40.80
41481;DHT22;27217;51.220;5.308;2023-08-21T15:34:59;39.90;40.10